ILE ROUGE (AUT) Q current weather conditions

sailwx.info

Wind from 220 at 27 knots gusting 32

Air temperature -1.2° C
Dewpoint -3.0° C

Last reported at 2020-Jan-23 10:00 UTC.
Time now 2020-Jan-23 11:02 UTC

Location: N 48°05' W 069°33'.
View on Google Maps.

See reports from other nearby stations

  
Tides and Currents Weather Stations Pressure Air Temp Water Temp Dewpoint Dewpoint Depression Visibility Wind Speed Wind Dir Waves Ship Positions
date/time (UTC)wind fromknots sea level pressurealtimeterstation pressurevisibilityair tempwater tempwave heightnotes
2020-Jan-23 10:00 220 27 gusting 32 -1.2
2020-Jan-23 09:00 210 24 gusting 29 -0.9
2020-Jan-23 08:00 210 26 gusting 31 -0.9
2020-Jan-23 07:00 220 26 gusting 31 -0.9
2020-Jan-23 06:00 210 25 gusting 32 -1.0
2020-Jan-23 05:00 210 25 gusting 32 -0.8
2020-Jan-23 04:00 210 25 -0.6
2020-Jan-23 03:00 210 21 gusting 27 -0.9
2020-Jan-23 02:00 210 22 gusting 27 -0.9
2020-Jan-23 01:00 210 22 -1.1
2020-Jan-23 00:00 220 27 gusting 33 -1.2
2020-Jan-22 23:00 210 25 gusting 33 -0.5
2020-Jan-22 22:00 210 27 gusting 34 -1.6
2020-Jan-22 21:00 200 25 -1.9
2020-Jan-22 20:00 210 24 gusting 28 -2.1
2020-Jan-22 19:00 220 25 gusting 29 -2.6
2020-Jan-22 18:00 210 21 gusting 27 -3.1
2020-Jan-22 17:00 210 18 -3.8
2020-Jan-22 16:00 210 18 -4.1
2020-Jan-22 15:00 210 18 -4.8
2020-Jan-22 14:00 200 18 -5.0
2020-Jan-22 13:00 210 13 -5.6
2020-Jan-22 12:00 200 13 gusting 19 -5.9
2020-Jan-22 11:00 200 17 -6.6
2020-Jan-22 10:00 200 18 -7.1
2020-Jan-22 09:00 200 20 -7.4
2020-Jan-22 08:00 190 20 -6.5
2020-Jan-22 07:00 200 20 -6.5
2020-Jan-22 06:00 200 19 -7.7
2020-Jan-22 05:00 200 20 -8.2
2020-Jan-22 04:00 200 20 gusting 27 -8.4
2020-Jan-22 03:00 210 22 -8.3
2020-Jan-22 02:00 200 27 gusting 34 -8.8
2020-Jan-22 01:00 210 27 gusting 34 -8.5
2020-Jan-22 00:00 210 29 gusting 35 -9.0
2020-Jan-21 23:00 210 29 gusting 34 -8.7
2020-Jan-21 22:00 210 28 gusting 34 -9.7
2020-Jan-21 21:00 200 27 gusting 33 -10.1
2020-Jan-21 20:00 200 26 -9.6
2020-Jan-21 19:00 210 26 gusting 31 -10.4
2020-Jan-21 18:00 200 22 -10.8
2020-Jan-21 17:00 200 19 -11.6
2020-Jan-21 16:00 200 13 -13.0
2020-Jan-21 15:00 200 9 -13.3
2020-Jan-21 14:00 280 13 -13.3
2020-Jan-21 13:00 270 14 gusting 20 -13.6
2020-Jan-21 12:00 270 14 gusting 20 -12.5
2020-Jan-21 11:00 290 18 gusting 24 -13.3